Silver, Texas
Current Conditions -  °F | °C
As of 3:15 AM on Friday 31 Oct 2014 (Local Time) from KSWW Reporting Station
Clear Clear  
Wind Chill: 14°   Ceiling: Unl
Heat Index: 14°   Visibility: 10mi
Dew Point:   Wind: 7mph
Humidity: 50%   Direction: 20°NNE
Pressure: 30.32"   Gusts: NA
Location:  32.07°N, 100.68°W
Report Text: KSWW 310815Z AUTO 02006KT 10SM CLR 14/03 A3032 RMK AO2 T01350033
Loading
Personal Weather Stations






























Interactive Weather Map
Tropical Storm Tracking
New forecast layout! Learn more

10-Day Weather Forecast

Advertisements
Track Severe Weather on mobile